sensor_id;sensor_type;location;lat;lon;timestamp;temperature;humidity
68912;SHT31;55953;51.650;-0.522;2023-07-29T00:00:01;17.76;78.48
68912;SHT31;55953;51.650;-0.522;2023-07-29T00:02:58;17.75;78.60
68912;SHT31;55953;51.650;-0.522;2023-07-29T00:05:27;17.74;78.51
68912;SHT31;55953;51.650;-0.522;2023-07-29T00:07:54;17.74;78.36
68912;SHT31;55953;51.650;-0.522;2023-07-29T00:10:22;17.76;78.33
68912;SHT31;55953;51.650;-0.522;2023-07-29T00:12:50;17.74;78.28
68912;SHT31;55953;51.650;-0.522;2023-07-29T00:15:18;17.74;78.13
68912;SHT31;55953;51.650;-0.522;2023-07-29T00:17:46;17.73;78.24
68912;SHT31;55953;51.650;-0.522;2023-07-29T00:20:14;17.71;78.27
68912;SHT31;55953;51.650;-0.522;2023-07-29T00:22:42;17.72;78.24
68912;SHT31;55953;51.650;-0.522;2023-07-29T00:25:10;17.71;78.16
68912;SHT31;55953;51.650;-0.522;2023-07-29T00:27:38;17.71;78.27
68912;SHT31;55953;51.650;-0.522;2023-07-29T00:30:06;17.71;78.11
68912;SHT31;55953;51.650;-0.522;2023-07-29T00:32:36;17.70;78.24
68912;SHT31;55953;51.650;-0.522;2023-07-29T00:35:05;17.63;78.79
68912;SHT31;55953;51.650;-0.522;2023-07-29T00:37:34;17.55;79.11
68912;SHT31;55953;51.650;-0.522;2023-07-29T00:40:02;17.49;79.64
68912;SHT31;55953;51.650;-0.522;2023-07-29T00:42:30;17.39;80.24
68912;SHT31;55953;51.650;-0.522;2023-07-29T00:44:58;17.27;80.72
68912;SHT31;55953;51.650;-0.522;2023-07-29T00:47:26;17.18;81.18
68912;SHT31;55953;51.650;-0.522;2023-07-29T00:49:54;17.13;81.49
68912;SHT31;55953;51.650;-0.522;2023-07-29T00:52:22;17.09;81.51
68912;SHT31;55953;51.650;-0.522;2023-07-29T00:54:50;17.06;81.57
68912;SHT31;55953;51.650;-0.522;2023-07-29T00:57:19;16.99;82.00
68912;SHT31;55953;51.650;-0.522;2023-07-29T00:59:49;16.91;81.98
68912;SHT31;55953;51.650;-0.522;2023-07-29T01:02:17;16.86;81.94
68912;SHT31;55953;51.650;-0.522;2023-07-29T01:04:45;16.83;82.25
68912;SHT31;55953;51.650;-0.522;2023-07-29T01:07:21;16.80;82.46
68912;SHT31;55953;51.650;-0.522;2023-07-29T01:10:21;16.79;82.71
68912;SHT31;55953;51.650;-0.522;2023-07-29T01:18:45;16.70;83.01
68912;SHT31;55953;51.650;-0.522;2023-07-29T01:21:15;16.67;83.00
68912;SHT31;55953;51.650;-0.522;2023-07-29T01:23:45;16.65;83.30
68912;SHT31;55953;51.650;-0.522;2023-07-29T01:26:13;16.62;83.40
68912;SHT31;55953;51.650;-0.522;2023-07-29T01:28:41;16.60;83.42
68912;SHT31;55953;51.650;-0.522;2023-07-29T01:33:53;16.58;83.63
68912;SHT31;55953;51.650;-0.522;2023-07-29T01:36:28;16.58;83.67
68912;SHT31;55953;51.650;-0.522;2023-07-29T01:39:02;16.59;83.53
68912;SHT31;55953;51.650;-0.522;2023-07-29T01:41:30;16.61;83.56
68912;SHT31;55953;51.650;-0.522;2023-07-29T01:43:59;16.62;83.77
68912;SHT31;55953;51.650;-0.522;2023-07-29T01:46:27;16.61;83.87
68912;SHT31;55953;51.650;-0.522;2023-07-29T01:48:55;16.61;83.59
68912;SHT31;55953;51.650;-0.522;2023-07-29T01:51:22;16.62;83.52
68912;SHT31;55953;51.650;-0.522;2023-07-29T01:53:50;16.63;83.32
68912;SHT31;55953;51.650;-0.522;2023-07-29T01:56:18;16.60;83.56
68912;SHT31;55953;51.650;-0.522;2023-07-29T01:58:54;16.59;83.47
68912;SHT31;55953;51.650;-0.522;2023-07-29T02:01:22;16.59;83.52
68912;SHT31;55953;51.650;-0.522;2023-07-29T02:03:50;16.60;83.35
68912;SHT31;55953;51.650;-0.522;2023-07-29T02:06:22;16.58;83.19
68912;SHT31;55953;51.650;-0.522;2023-07-29T02:08:50;16.59;83.29
68912;SHT31;55953;51.650;-0.522;2023-07-29T02:11:18;16.56;83.29
68912;SHT31;55953;51.650;-0.522;2023-07-29T02:13:48;16.56;83.35
68912;SHT31;55953;51.650;-0.522;2023-07-29T02:16:16;16.53;83.45
68912;SHT31;55953;51.650;-0.522;2023-07-29T02:18:43;16.50;83.43
68912;SHT31;55953;51.650;-0.522;2023-07-29T02:21:11;16.48;83.51
68912;SHT31;55953;51.650;-0.522;2023-07-29T02:23:39;16.48;83.45
68912;SHT31;55953;51.650;-0.522;2023-07-29T02:26:07;16.48;83.53
68912;SHT31;55953;51.650;-0.522;2023-07-29T02:28:35;16.52;83.57
68912;SHT31;55953;51.650;-0.522;2023-07-29T02:31:12;16.54;83.49
68912;SHT31;55953;51.650;-0.522;2023-07-29T02:33:49;16.53;83.42
68912;SHT31;55953;51.650;-0.522;2023-07-29T02:36:18;16.51;83.42
68912;SHT31;55953;51.650;-0.522;2023-07-29T02:38:46;16.46;83.34
68912;SHT31;55953;51.650;-0.522;2023-07-29T02:41:14;16.46;83.41
68912;SHT31;55953;51.650;-0.522;2023-07-29T02:43:47;16.47;83.41
68912;SHT31;55953;51.650;-0.522;2023-07-29T02:46:17;16.51;83.51
68912;SHT31;55953;51.650;-0.522;2023-07-29T02:48:45;16.51;83.43
68912;SHT31;55953;51.650;-0.522;2023-07-29T02:51:13;16.52;83.45
68912;SHT31;55953;51.650;-0.522;2023-07-29T02:53:41;16.53;83.45
68912;SHT31;55953;51.650;-0.522;2023-07-29T02:56:10;16.52;83.42
68912;SHT31;55953;51.650;-0.522;2023-07-29T02:58:39;16.53;83.40
68912;SHT31;55953;51.650;-0.522;2023-07-29T03:01:07;16.55;83.32
68912;SHT31;55953;51.650;-0.522;2023-07-29T03:03:35;16.52;83.34
68912;SHT31;55953;51.650;-0.522;2023-07-29T03:06:04;16.51;83.46
68912;SHT31;55953;51.650;-0.522;2023-07-29T03:08:35;16.48;83.50
68912;SHT31;55953;51.650;-0.522;2023-07-29T03:11:05;16.46;83.46
68912;SHT31;55953;51.650;-0.522;2023-07-29T03:13:35;16.45;83.42
68912;SHT31;55953;51.650;-0.522;2023-07-29T03:16:07;16.40;83.49
68912;SHT31;55953;51.650;-0.522;2023-07-29T03:18:38;16.39;83.60
68912;SHT31;55953;51.650;-0.522;2023-07-29T03:21:07;16.41;83.65
68912;SHT31;55953;51.650;-0.522;2023-07-29T03:23:37;16.36;83.59
68912;SHT31;55953;51.650;-0.522;2023-07-29T03:26:05;16.35;83.64
68912;SHT31;55953;51.650;-0.522;2023-07-29T03:28:39;16.35;83.61
68912;SHT31;55953;51.650;-0.522;2023-07-29T03:31:10;16.34;83.52
68912;SHT31;55953;51.650;-0.522;2023-07-29T03:33:39;16.32;83.57
68912;SHT31;55953;51.650;-0.522;2023-07-29T03:36:07;16.30;83.61
68912;SHT31;55953;51.650;-0.522;2023-07-29T03:38:35;16.28;83.60
68912;SHT31;55953;51.650;-0.522;2023-07-29T03:41:08;16.28;83.56
68912;SHT31;55953;51.650;-0.522;2023-07-29T03:43:36;16.29;83.53
68912;SHT31;55953;51.650;-0.522;2023-07-29T03:46:04;16.28;83.58
68912;SHT31;55953;51.650;-0.522;2023-07-29T03:48:35;16.26;83.57
68912;SHT31;55953;51.650;-0.522;2023-07-29T03:51:04;16.26;83.59
68912;SHT31;55953;51.650;-0.522;2023-07-29T03:53:31;16.27;83.49
68912;SHT31;55953;51.650;-0.522;2023-07-29T03:55:59;16.24;83.40
68912;SHT31;55953;51.650;-0.522;2023-07-29T03:58:27;16.24;83.42
68912;SHT31;55953;51.650;-0.522;2023-07-29T04:00:55;16.23;83.44
68912;SHT31;55953;51.650;-0.522;2023-07-29T04:03:23;16.20;83.60
68912;SHT31;55953;51.650;-0.522;2023-07-29T04:05:52;16.18;83.82
68912;SHT31;55953;51.650;-0.522;2023-07-29T04:08:20;16.19;83.74
68912;SHT31;55953;51.650;-0.522;2023-07-29T04:10:48;16.20;83.73
68912;SHT31;55953;51.650;-0.522;2023-07-29T04:13:16;16.19;83.73
68912;SHT31;55953;51.650;-0.522;2023-07-29T04:15:44;16.20;83.73
68912;SHT31;55953;51.650;-0.522;2023-07-29T04:18:12;16.20;83.74
68912;SHT31;55953;51.650;-0.522;2023-07-29T04:20:40;16.23;83.73
68912;SHT31;55953;51.650;-0.522;2023-07-29T04:23:09;16.25;83.69
68912;SHT31;55953;51.650;-0.522;2023-07-29T04:25:36;16.26;83.67
68912;SHT31;55953;51.650;-0.522;2023-07-29T04:28:04;16.26;83.56
68912;SHT31;55953;51.650;-0.522;2023-07-29T04:30:32;16.28;83.56
68912;SHT31;55953;51.650;-0.522;2023-07-29T04:33:00;16.31;83.53
68912;SHT31;55953;51.650;-0.522;2023-07-29T04:35:28;16.31;83.50
68912;SHT31;55953;51.650;-0.522;2023-07-29T04:37:56;16.33;83.56
68912;SHT31;55953;51.650;-0.522;2023-07-29T04:40:24;16.32;83.44
68912;SHT31;55953;51.650;-0.522;2023-07-29T04:42:52;16.30;83.47
68912;SHT31;55953;51.650;-0.522;2023-07-29T04:45:20;16.33;83.51
68912;SHT31;55953;51.650;-0.522;2023-07-29T04:47:48;16.35;83.42
68912;SHT31;55953;51.650;-0.522;2023-07-29T04:50:15;16.37;83.31
68912;SHT31;55953;51.650;-0.522;2023-07-29T04:52:43;16.38;83.32
68912;SHT31;55953;51.650;-0.522;2023-07-29T04:55:11;16.36;83.40
68912;SHT31;55953;51.650;-0.522;2023-07-29T04:57:39;16.34;83.50
68912;SHT31;55953;51.650;-0.522;2023-07-29T05:00:07;16.36;83.39
68912;SHT31;55953;51.650;-0.522;2023-07-29T05:02:35;16.38;83.44
68912;SHT31;55953;51.650;-0.522;2023-07-29T05:05:03;16.40;83.54
68912;SHT31;55953;51.650;-0.522;2023-07-29T05:07:32;16.41;83.51
68912;SHT31;55953;51.650;-0.522;2023-07-29T05:10:00;16.45;83.51
68912;SHT31;55953;51.650;-0.522;2023-07-29T05:12:28;16.51;83.39
68912;SHT31;55953;51.650;-0.522;2023-07-29T05:14:56;16.52;83.34
68912;SHT31;55953;51.650;-0.522;2023-07-29T05:17:24;16.54;83.36
68912;SHT31;55953;51.650;-0.522;2023-07-29T05:19:53;16.57;83.34
68912;SHT31;55953;51.650;-0.522;2023-07-29T05:22:21;16.61;83.34
68912;SHT31;55953;51.650;-0.522;2023-07-29T05:24:48;16.63;83.27
68912;SHT31;55953;51.650;-0.522;2023-07-29T05:27:16;16.68;83.22
68912;SHT31;55953;51.650;-0.522;2023-07-29T05:29:44;16.69;83.11
68912;SHT31;55953;51.650;-0.522;2023-07-29T05:32:12;16.78;83.16
68912;SHT31;55953;51.650;-0.522;2023-07-29T05:34:41;16.84;82.75
68912;SHT31;55953;51.650;-0.522;2023-07-29T05:37:10;16.83;82.77
68912;SHT31;55953;51.650;-0.522;2023-07-29T05:39:38;16.83;82.78
68912;SHT31;55953;51.650;-0.522;2023-07-29T05:42:05;16.85;82.77
68912;SHT31;55953;51.650;-0.522;2023-07-29T05:44:33;16.88;82.66
68912;SHT31;55953;51.650;-0.522;2023-07-29T05:47:01;16.88;82.56
68912;SHT31;55953;51.650;-0.522;2023-07-29T05:49:30;16.87;82.60
68912;SHT31;55953;51.650;-0.522;2023-07-29T05:51:58;16.88;82.66
68912;SHT31;55953;51.650;-0.522;2023-07-29T05:54:26;16.92;82.63
68912;SHT31;55953;51.650;-0.522;2023-07-29T05:56:53;16.93;82.49
68912;SHT31;55953;51.650;-0.522;2023-07-29T05:59:21;16.95;82.56
68912;SHT31;55953;51.650;-0.522;2023-07-29T06:01:50;16.97;82.61
68912;SHT31;55953;51.650;-0.522;2023-07-29T06:04:18;17.02;82.67
68912;SHT31;55953;51.650;-0.522;2023-07-29T06:06:46;17.11;82.64
68912;SHT31;55953;51.650;-0.522;2023-07-29T06:09:14;17.17;82.47
68912;SHT31;55953;51.650;-0.522;2023-07-29T06:11:41;17.19;82.16
68912;SHT31;55953;51.650;-0.522;2023-07-29T06:14:09;17.22;82.15
68912;SHT31;55953;51.650;-0.522;2023-07-29T06:16:37;17.22;81.94
68912;SHT31;55953;51.650;-0.522;2023-07-29T06:19:05;17.18;82.10
68912;SHT31;55953;51.650;-0.522;2023-07-29T06:21:36;17.28;82.19
68912;SHT31;55953;51.650;-0.522;2023-07-29T06:24:04;17.40;81.92
68912;SHT31;55953;51.650;-0.522;2023-07-29T06:26:33;17.43;81.40
68912;SHT31;55953;51.650;-0.522;2023-07-29T06:29:01;17.49;81.40
68912;SHT31;55953;51.650;-0.522;2023-07-29T06:31:29;17.57;81.31
68912;SHT31;55953;51.650;-0.522;2023-07-29T06:33:58;17.69;81.34
68912;SHT31;55953;51.650;-0.522;2023-07-29T06:36:26;17.72;81.04
68912;SHT31;55953;51.650;-0.522;2023-07-29T06:38:54;17.74;80.96
68912;SHT31;55953;51.650;-0.522;2023-07-29T06:41:21;17.80;80.69
68912;SHT31;55953;51.650;-0.522;2023-07-29T06:43:50;17.80;80.51
68912;SHT31;55953;51.650;-0.522;2023-07-29T06:46:17;17.86;80.88
68912;SHT31;55953;51.650;-0.522;2023-07-29T06:48:46;17.94;80.76
68912;SHT31;55953;51.650;-0.522;2023-07-29T06:51:13;17.98;80.48
68912;SHT31;55953;51.650;-0.522;2023-07-29T06:53:41;17.98;80.16
68912;SHT31;55953;51.650;-0.522;2023-07-29T06:56:09;17.99;80.04
68912;SHT31;55953;51.650;-0.522;2023-07-29T06:58:37;18.00;79.75
68912;SHT31;55953;51.650;-0.522;2023-07-29T07:01:05;18.03;79.86
68912;SHT31;55953;51.650;-0.522;2023-07-29T07:03:32;18.12;79.93
68912;SHT31;55953;51.650;-0.522;2023-07-29T07:06:01;18.19;79.72
68912;SHT31;55953;51.650;-0.522;2023-07-29T07:08:29;18.27;79.56
68912;SHT31;55953;51.650;-0.522;2023-07-29T07:10:58;18.31;79.48
68912;SHT31;55953;51.650;-0.522;2023-07-29T07:13:26;18.30;78.95
68912;SHT31;55953;51.650;-0.522;2023-07-29T07:15:54;18.29;78.99
68912;SHT31;55953;51.650;-0.522;2023-07-29T07:18:23;18.24;79.02
68912;SHT31;55953;51.650;-0.522;2023-07-29T07:20:51;18.22;79.01
68912;SHT31;55953;51.650;-0.522;2023-07-29T07:23:19;18.23;78.98
68912;SHT31;55953;51.650;-0.522;2023-07-29T07:25:47;18.26;78.72
68912;SHT31;55953;51.650;-0.522;2023-07-29T07:28:15;18.29;78.75
68912;SHT31;55953;51.650;-0.522;2023-07-29T07:30:43;18.38;78.98
68912;SHT31;55953;51.650;-0.522;2023-07-29T07:33:10;18.49;78.26
68912;SHT31;55953;51.650;-0.522;2023-07-29T07:35:38;18.46;77.85
68912;SHT31;55953;51.650;-0.522;2023-07-29T07:38:06;18.46;78.03
68912;SHT31;55953;51.650;-0.522;2023-07-29T07:40:35;18.44;77.82
68912;SHT31;55953;51.650;-0.522;2023-07-29T07:43:04;18.41;77.63
68912;SHT31;55953;51.650;-0.522;2023-07-29T07:45:32;18.46;78.19
68912;SHT31;55953;51.650;-0.522;2023-07-29T07:48:00;18.62;78.01
68912;SHT31;55953;51.650;-0.522;2023-07-29T07:50:29;18.76;77.72
68912;SHT31;55953;51.650;-0.522;2023-07-29T07:52:58;18.81;77.38
68912;SHT31;55953;51.650;-0.522;2023-07-29T07:55:26;18.84;76.93
68912;SHT31;55953;51.650;-0.522;2023-07-29T07:57:54;18.89;76.99
68912;SHT31;55953;51.650;-0.522;2023-07-29T08:00:22;19.05;76.83
68912;SHT31;55953;51.650;-0.522;2023-07-29T08:02:50;19.20;76.09
68912;SHT31;55953;51.650;-0.522;2023-07-29T08:05:19;19.30;75.39
68912;SHT31;55953;51.650;-0.522;2023-07-29T08:07:47;19.28;75.19
68912;SHT31;55953;51.650;-0.522;2023-07-29T08:10:15;19.27;74.26
68912;SHT31;55953;51.650;-0.522;2023-07-29T08:12:43;19.32;74.06
68912;SHT31;55953;51.650;-0.522;2023-07-29T08:15:10;19.36;73.44
68912;SHT31;55953;51.650;-0.522;2023-07-29T08:17:38;19.35;73.55
68912;SHT31;55953;51.650;-0.522;2023-07-29T08:20:06;19.40;73.66
68912;SHT31;55953;51.650;-0.522;2023-07-29T08:22:34;19.52;73.61
68912;SHT31;55953;51.650;-0.522;2023-07-29T08:25:02;19.54;72.97
68912;SHT31;55953;51.650;-0.522;2023-07-29T08:27:33;19.53;73.45
68912;SHT31;55953;51.650;-0.522;2023-07-29T08:30:02;19.48;73.49
68912;SHT31;55953;51.650;-0.522;2023-07-29T08:32:30;19.38;73.50
68912;SHT31;55953;51.650;-0.522;2023-07-29T08:34:57;19.29;73.44
68912;SHT31;55953;51.650;-0.522;2023-07-29T08:37:25;19.33;73.22
68912;SHT31;55953;51.650;-0.522;2023-07-29T08:39:54;19.36;73.16
68912;SHT31;55953;51.650;-0.522;2023-07-29T08:42:22;19.39;73.18
68912;SHT31;55953;51.650;-0.522;2023-07-29T08:44:54;19.34;72.66
68912;SHT31;55953;51.650;-0.522;2023-07-29T08:47:24;19.26;72.83
68912;SHT31;55953;51.650;-0.522;2023-07-29T08:49:51;19.13;72.51
68912;SHT31;55953;51.650;-0.522;2023-07-29T08:52:21;18.98;72.31
68912;SHT31;55953;51.650;-0.522;2023-07-29T08:54:50;18.84;72.49
68912;SHT31;55953;51.650;-0.522;2023-07-29T08:57:20;18.80;72.78
68912;SHT31;55953;51.650;-0.522;2023-07-29T08:59:49;18.84;72.72
68912;SHT31;55953;51.650;-0.522;2023-07-29T09:02:17;18.88;73.40
68912;SHT31;55953;51.650;-0.522;2023-07-29T09:04:45;18.85;72.59
68912;SHT31;55953;51.650;-0.522;2023-07-29T09:07:13;18.91;73.00
68912;SHT31;55953;51.650;-0.522;2023-07-29T09:09:42;19.04;72.52
68912;SHT31;55953;51.650;-0.522;2023-07-29T09:12:09;19.16;71.53
68912;SHT31;55953;51.650;-0.522;2023-07-29T09:14:38;19.23;71.32
68912;SHT31;55953;51.650;-0.522;2023-07-29T09:17:07;19.32;70.75
68912;SHT31;55953;51.650;-0.522;2023-07-29T09:19:37;19.44;70.48
68912;SHT31;55953;51.650;-0.522;2023-07-29T09:22:05;19.69;70.35
68912;SHT31;55953;51.650;-0.522;2023-07-29T09:24:45;19.98;69.86
68912;SHT31;55953;51.650;-0.522;2023-07-29T09:27:27;20.12;68.83
68912;SHT31;55953;51.650;-0.522;2023-07-29T09:29:58;20.16;68.67
68912;SHT31;55953;51.650;-0.522;2023-07-29T09:32:26;20.22;68.66
68912;SHT31;55953;51.650;-0.522;2023-07-29T09:34:54;20.31;68.21
68912;SHT31;55953;51.650;-0.522;2023-07-29T09:37:23;20.43;66.58
68912;SHT31;55953;51.650;-0.522;2023-07-29T09:39:51;20.46;65.98
68912;SHT31;55953;51.650;-0.522;2023-07-29T09:42:20;20.52;66.44
68912;SHT31;55953;51.650;-0.522;2023-07-29T09:44:50;20.54;66.11
68912;SHT31;55953;51.650;-0.522;2023-07-29T09:47:19;20.54;65.62
68912;SHT31;55953;51.650;-0.522;2023-07-29T09:49:49;20.61;65.42
68912;SHT31;55953;51.650;-0.522;2023-07-29T09:52:18;20.82;65.58
68912;SHT31;55953;51.650;-0.522;2023-07-29T09:54:50;20.99;65.05
68912;SHT31;55953;51.650;-0.522;2023-07-29T09:57:18;21.12;64.88
68912;SHT31;55953;51.650;-0.522;2023-07-29T09:59:53;21.36;64.61
68912;SHT31;55953;51.650;-0.522;2023-07-29T10:02:22;21.50;62.81
68912;SHT31;55953;51.650;-0.522;2023-07-29T10:04:53;21.59;62.58
68912;SHT31;55953;51.650;-0.522;2023-07-29T10:07:22;21.65;63.09
68912;SHT31;55953;51.650;-0.522;2023-07-29T10:09:51;21.52;62.68
68912;SHT31;55953;51.650;-0.522;2023-07-29T10:12:20;21.17;63.74
68912;SHT31;55953;51.650;-0.522;2023-07-29T10:14:49;20.81;66.04
68912;SHT31;55953;51.650;-0.522;2023-07-29T10:17:18;20.60;67.43
68912;SHT31;55953;51.650;-0.522;2023-07-29T10:19:48;20.67;67.56
68912;SHT31;55953;51.650;-0.522;2023-07-29T10:22:17;20.82;67.53
68912;SHT31;55953;51.650;-0.522;2023-07-29T10:24:48;20.87;66.77
68912;SHT31;55953;51.650;-0.522;2023-07-29T10:27:21;20.89;66.02
68912;SHT31;55953;51.650;-0.522;2023-07-29T10:29:52;21.03;65.63
68912;SHT31;55953;51.650;-0.522;2023-07-29T10:32:24;21.18;64.40
68912;SHT31;55953;51.650;-0.522;2023-07-29T10:34:54;21.37;63.90
68912;SHT31;55953;51.650;-0.522;2023-07-29T10:37:22;21.53;62.85
68912;SHT31;55953;51.650;-0.522;2023-07-29T10:39:54;21.68;62.03
68912;SHT31;55953;51.650;-0.522;2023-07-29T10:42:23;21.74;60.98
68912;SHT31;55953;51.650;-0.522;2023-07-29T10:44:54;21.90;62.06
68912;SHT31;55953;51.650;-0.522;2023-07-29T10:47:26;22.16;61.57
68912;SHT31;55953;51.650;-0.522;2023-07-29T10:49:56;22.38;61.08
68912;SHT31;55953;51.650;-0.522;2023-07-29T10:55:03;22.43;59.15
68912;SHT31;55953;51.650;-0.522;2023-07-29T10:57:51;22.27;59.71
68912;SHT31;55953;51.650;-0.522;2023-07-29T11:00:20;22.35;59.88
68912;SHT31;55953;51.650;-0.522;2023-07-29T11:03:00;22.48;58.29
68912;SHT31;55953;51.650;-0.522;2023-07-29T11:08:17;22.40;57.06
68912;SHT31;55953;51.650;-0.522;2023-07-29T11:11:01;22.31;57.16
68912;SHT31;55953;51.650;-0.522;2023-07-29T11:13:35;22.22;56.73
68912;SHT31;55953;51.650;-0.522;2023-07-29T11:16:05;22.32;57.63
68912;SHT31;55953;51.650;-0.522;2023-07-29T11:18:34;22.44;57.56
68912;SHT31;55953;51.650;-0.522;2023-07-29T11:21:03;22.51;57.30
68912;SHT31;55953;51.650;-0.522;2023-07-29T11:23:32;22.53;57.06
68912;SHT31;55953;51.650;-0.522;2023-07-29T11:26:03;22.68;56.95
68912;SHT31;55953;51.650;-0.522;2023-07-29T11:28:37;22.73;55.67
68912;SHT31;55953;51.650;-0.522;2023-07-29T11:31:07;22.66;54.66
68912;SHT31;55953;51.650;-0.522;2023-07-29T11:33:34;22.46;54.19
68912;SHT31;55953;51.650;-0.522;2023-07-29T11:36:02;22.32;55.14
68912;SHT31;55953;51.650;-0.522;2023-07-29T11:38:30;22.40;56.51
68912;SHT31;55953;51.650;-0.522;2023-07-29T11:41:04;22.64;55.97
68912;SHT31;55953;51.650;-0.522;2023-07-29T11:43:36;22.73;54.80
68912;SHT31;55953;51.650;-0.522;2023-07-29T11:46:04;22.70;54.58
68912;SHT31;55953;51.650;-0.522;2023-07-29T11:48:33;22.75;54.28
68912;SHT31;55953;51.650;-0.522;2023-07-29T11:51:01;22.88;54.11
68912;SHT31;55953;51.650;-0.522;2023-07-29T11:53:31;22.83;52.76
68912;SHT31;55953;51.650;-0.522;2023-07-29T11:55:59;22.86;53.71
68912;SHT31;55953;51.650;-0.522;2023-07-29T11:58:27;23.03;53.04
68912;SHT31;55953;51.650;-0.522;2023-07-29T12:00:55;22.97;52.50
68912;SHT31;55953;51.650;-0.522;2023-07-29T12:03:23;23.14;53.32
68912;SHT31;55953;51.650;-0.522;2023-07-29T12:05:53;23.42;53.80
68912;SHT31;55953;51.650;-0.522;2023-07-29T12:08:21;23.70;53.30
68912;SHT31;55953;51.650;-0.522;2023-07-29T12:10:49;23.89;52.59
68912;SHT31;55953;51.650;-0.522;2023-07-29T12:13:17;23.95;51.86
68912;SHT31;55953;51.650;-0.522;2023-07-29T12:15:44;23.90;50.41
68912;SHT31;55953;51.650;-0.522;2023-07-29T12:18:12;23.89;51.50
68912;SHT31;55953;51.650;-0.522;2023-07-29T12:20:40;24.00;52.99
68912;SHT31;55953;51.650;-0.522;2023-07-29T12:23:09;24.04;52.81
68912;SHT31;55953;51.650;-0.522;2023-07-29T12:25:37;23.81;52.86
68912;SHT31;55953;51.650;-0.522;2023-07-29T12:28:05;23.72;53.05
68912;SHT31;55953;51.650;-0.522;2023-07-29T12:30:40;23.73;53.29
68912;SHT31;55953;51.650;-0.522;2023-07-29T12:33:10;23.79;52.91
68912;SHT31;55953;51.650;-0.522;2023-07-29T12:35:37;23.70;52.73
68912;SHT31;55953;51.650;-0.522;2023-07-29T12:38:05;23.65;52.99
68912;SHT31;55953;51.650;-0.522;2023-07-29T12:40:37;23.67;51.74
68912;SHT31;55953;51.650;-0.522;2023-07-29T12:43:07;23.58;52.01
68912;SHT31;55953;51.650;-0.522;2023-07-29T12:45:35;23.45;51.84
68912;SHT31;55953;51.650;-0.522;2023-07-29T12:48:04;23.28;52.57
68912;SHT31;55953;51.650;-0.522;2023-07-29T12:50:32;23.17;52.60
68912;SHT31;55953;51.650;-0.522;2023-07-29T12:53:00;22.96;50.99
68912;SHT31;55953;51.650;-0.522;2023-07-29T12:55:28;22.74;51.32
68912;SHT31;55953;51.650;-0.522;2023-07-29T12:57:55;22.62;51.58
68912;SHT31;55953;51.650;-0.522;2023-07-29T13:00:25;22.88;52.17
68912;SHT31;55953;51.650;-0.522;2023-07-29T13:02:53;23.22;50.54
68912;SHT31;55953;51.650;-0.522;2023-07-29T13:05:21;23.45;50.89
68912;SHT31;55953;51.650;-0.522;2023-07-29T13:07:49;23.56;51.32
68912;SHT31;55953;51.650;-0.522;2023-07-29T13:10:17;23.65;50.27
68912;SHT31;55953;51.650;-0.522;2023-07-29T13:12:45;23.71;50.73
68912;SHT31;55953;51.650;-0.522;2023-07-29T13:15:13;23.80;51.45
68912;SHT31;55953;51.650;-0.522;2023-07-29T13:17:40;23.82;52.25
68912;SHT31;55953;51.650;-0.522;2023-07-29T13:20:09;23.86;52.17
68912;SHT31;55953;51.650;-0.522;2023-07-29T13:22:37;23.90;52.05
68912;SHT31;55953;51.650;-0.522;2023-07-29T13:25:04;24.02;51.92
68912;SHT31;55953;51.650;-0.522;2023-07-29T13:27:32;23.91;51.24
68912;SHT31;55953;51.650;-0.522;2023-07-29T13:30:00;23.68;51.49
68912;SHT31;55953;51.650;-0.522;2023-07-29T13:32:28;23.52;52.15
68912;SHT31;55953;51.650;-0.522;2023-07-29T13:34:56;23.59;50.59
68912;SHT31;55953;51.650;-0.522;2023-07-29T13:37:23;23.84;50.98
68912;SHT31;55953;51.650;-0.522;2023-07-29T13:39:51;24.04;51.00
68912;SHT31;55953;51.650;-0.522;2023-07-29T13:42:19;24.32;48.91
68912;SHT31;55953;51.650;-0.522;2023-07-29T13:44:47;24.28;48.48
68912;SHT31;55953;51.650;-0.522;2023-07-29T13:47:15;24.13;48.69
68912;SHT31;55953;51.650;-0.522;2023-07-29T13:49:42;23.86;49.24
68912;SHT31;55953;51.650;-0.522;2023-07-29T13:52:10;23.58;49.50
68912;SHT31;55953;51.650;-0.522;2023-07-29T13:54:38;23.40;49.76
68912;SHT31;55953;51.650;-0.522;2023-07-29T13:57:07;23.24;50.22
68912;SHT31;55953;51.650;-0.522;2023-07-29T13:59:34;23.10;51.07
68912;SHT31;55953;51.650;-0.522;2023-07-29T14:02:02;22.99;51.04
68912;SHT31;55953;51.650;-0.522;2023-07-29T14:04:31;22.92;50.98
68912;SHT31;55953;51.650;-0.522;2023-07-29T14:07:00;23.18;51.27
68912;SHT31;55953;51.650;-0.522;2023-07-29T14:09:28;23.36;50.51
68912;SHT31;55953;51.650;-0.522;2023-07-29T14:11:56;23.45;50.18
68912;SHT31;55953;51.650;-0.522;2023-07-29T14:14:24;23.66;50.60
68912;SHT31;55953;51.650;-0.522;2023-07-29T14:16:52;23.87;49.10
68912;SHT31;55953;51.650;-0.522;2023-07-29T14:19:20;23.77;50.09
68912;SHT31;55953;51.650;-0.522;2023-07-29T14:21:48;23.63;50.30
68912;SHT31;55953;51.650;-0.522;2023-07-29T14:24:15;23.44;50.34
68912;SHT31;55953;51.650;-0.522;2023-07-29T14:26:44;23.37;51.40
68912;SHT31;55953;51.650;-0.522;2023-07-29T14:29:12;23.25;49.81
68912;SHT31;55953;51.650;-0.522;2023-07-29T14:31:39;23.17;50.99
68912;SHT31;55953;51.650;-0.522;2023-07-29T14:34:07;23.14;49.64
68912;SHT31;55953;51.650;-0.522;2023-07-29T14:36:35;23.17;50.68
68912;SHT31;55953;51.650;-0.522;2023-07-29T14:39:04;23.24;48.91
68912;SHT31;55953;51.650;-0.522;2023-07-29T14:41:32;23.36;48.46
68912;SHT31;55953;51.650;-0.522;2023-07-29T14:43:59;23.50;48.65
68912;SHT31;55953;51.650;-0.522;2023-07-29T14:46:27;23.73;48.95
68912;SHT31;55953;51.650;-0.522;2023-07-29T14:48:55;23.90;46.73
68912;SHT31;55953;51.650;-0.522;2023-07-29T14:51:22;23.91;45.97
68912;SHT31;55953;51.650;-0.522;2023-07-29T14:53:50;23.64;45.87
68912;SHT31;55953;51.650;-0.522;2023-07-29T14:56:18;23.62;47.08
68912;SHT31;55953;51.650;-0.522;2023-07-29T14:58:49;23.70;47.26
68912;SHT31;55953;51.650;-0.522;2023-07-29T15:01:18;23.65;46.41
68912;SHT31;55953;51.650;-0.522;2023-07-29T15:03:46;23.39;46.06
68912;SHT31;55953;51.650;-0.522;2023-07-29T15:06:14;23.10;46.16
68912;SHT31;55953;51.650;-0.522;2023-07-29T15:08:41;23.14;46.84
68912;SHT31;55953;51.650;-0.522;2023-07-29T15:11:09;23.40;46.42
68912;SHT31;55953;51.650;-0.522;2023-07-29T15:13:37;23.61;46.06
68912;SHT31;55953;51.650;-0.522;2023-07-29T15:16:05;23.72;46.26
68912;SHT31;55953;51.650;-0.522;2023-07-29T15:18:33;23.57;45.26
68912;SHT31;55953;51.650;-0.522;2023-07-29T15:21:02;23.57;44.82
68912;SHT31;55953;51.650;-0.522;2023-07-29T15:23:29;23.70;44.26
68912;SHT31;55953;51.650;-0.522;2023-07-29T15:25:58;23.90;44.80
68912;SHT31;55953;51.650;-0.522;2023-07-29T15:28:26;24.03;44.22
68912;SHT31;55953;51.650;-0.522;2023-07-29T15:30:54;24.11;44.71
68912;SHT31;55953;51.650;-0.522;2023-07-29T15:33:22;24.12;44.26
68912;SHT31;55953;51.650;-0.522;2023-07-29T15:35:50;24.11;43.19
68912;SHT31;55953;51.650;-0.522;2023-07-29T15:38:19;24.04;43.60